Time;durP1;ratioP1;P1;durP2;ratioP2;P2;SDS_P1;SDS_P2;PMS_P1;PMS_P2;Temp;Humidity;BMP_temperature;BMP_pressure;BME280_temperature;BME280_humidity;BME280_pressure;Samples;Min_cycle;Max_cycle;Signal;HPM_P1;HPM_P2
2024/01/21 00:00:14;;;;;;;;;;;;;;;-0.17;59.38;100585.87;4468608;32;34806;-89
2024/01/21 00:02:42;;;;;;;;;;;;;;;-0.09;58.53;100580.59;4489868;31;33079;-89
2024/01/21 00:05:09;;;;;;;;;;;;;;;0.02;58.04;100585.63;4483981;31;33714;-89
2024/01/21 00:07:38;;;;;;;;;;;;;;;-0.04;57.94;100583.47;4484244;31;34138;-89
2024/01/21 00:10:07;;;;;;;;;;;;;;;0.13;57.35;100584.81;4483802;31;32757;-91
2024/01/21 00:12:34;;;;;;;;;;;;;;;-0.21;57.67;100592.38;4470898;31;34064;-89
2024/01/21 00:15:02;;;;;;;;;;;;;;;-0.46;58.24;100588.66;4483918;31;34437;-89
2024/01/21 00:17:30;;;;;;;;;;;;;;;-1.17;60.41;100585.56;4496775;31;34867;-90
2024/01/21 00:19:57;;;;;;;;;;;;;;;-1.14;60.99;100570.53;4498222;31;34179;-89
2024/01/21 00:22:24;;;;;;;;;;;;;;;-1.07;61.37;100567.72;4484332;31;32668;-89
2024/01/21 00:24:52;;;;;;;;;;;;;;;-0.92;60.46;100564.62;4483539;31;33495;-91
2024/01/21 00:27:19;;;;;;;;;;;;;;;-0.77;60.18;100558.22;4483689;31;35162;-89
2024/01/21 00:29:46;;;;;;;;;;;;;;;-1.01;60.18;100563.13;4470834;32;33715;-90
2024/01/21 00:32:14;;;;;;;;;;;;;;;-0.66;59.88;100565.06;4482223;32;34161;-91
2024/01/21 00:34:41;;;;;;;;;;;;;;;-0.52;59.07;100572.16;4468270;32;33798;-93
2024/01/21 00:37:09;;;;;;;;;;;;;;;-0.11;58.07;100584.69;4482552;32;34471;-89
2024/01/21 00:39:36;;;;;;;;;;;;;;;-0.25;57.88;100586.16;4482046;32;34712;-89
2024/01/21 00:42:03;;;;;;;;;;;;;;;-0.26;57.73;100586.06;4470136;31;32506;-90
2024/01/21 00:44:35;;;;;;;;;;;;;;;-0.32;57.93;100580.47;4484456;31;32951;-92
2024/01/21 00:47:03;;;;;;;;;;;;;;;-0.18;57.48;100584.97;4483680;31;33619;-90
2024/01/21 00:49:30;;;;;;;;;;;;;;;-0.54;58.70;100586.41;4470325;31;33866;-90
2024/01/21 00:51:58;;;;;;;;;;;;;;;-0.67;58.50;100591.31;4497728;31;33321;-89
2024/01/21 00:54:26;;;;;;;;;;;;;;;-0.40;58.09;100595.16;4472577;31;32599;-90
2024/01/21 00:56:53;;;;;;;;;;;;;;;-0.56;58.23;100595.59;4476632;32;33320;-89
2024/01/21 00:59:20;;;;;;;;;;;;;;;-0.50;57.61;100590.09;4484123;32;33607;-91
2024/01/21 01:01:48;;;;;;;;;;;;;;;-0.92;59.32;100598.62;4484293;32;32883;-88
2024/01/21 01:04:15;;;;;;;;;;;;;;;-0.66;57.94;100587.97;4470303;32;33841;-88
2024/01/21 01:06:42;;;;;;;;;;;;;;;-0.67;58.08;100583.66;4485085;32;33682;-89
2024/01/21 01:09:10;;;;;;;;;;;;;;;-1.10;59.34;100585.31;4484562;32;33634;-90
2024/01/21 01:11:37;;;;;;;;;;;;;;;-0.73;58.63;100586.59;4496625;31;32935;-89
2024/01/21 01:14:04;;;;;;;;;;;;;;;-0.74;58.46;100586.50;4499961;31;33501;-89
2024/01/21 01:16:39;;;;;;;;;;;;;;;-0.71;58.43;100583.31;4486161;31;35073;-89
2024/01/21 01:19:06;;;;;;;;;;;;;;;-0.35;57.03;100586.19;4472554;31;33407;-89
2024/01/21 01:21:34;;;;;;;;;;;;;;;-0.51;57.52;100584.09;4459892;31;32653;-89
2024/01/21 01:24:01;;;;;;;;;;;;;;;-0.37;57.36;100594.50;4485059;31;34757;-89
2024/01/21 01:26:29;;;;;;;;;;;;;;;-0.32;57.04;100595.75;4485384;31;33510;-89
2024/01/21 01:28:57;;;;;;;;;;;;;;;-0.46;57.27;100597.19;4499840;31;34752;-89
2024/01/21 01:31:24;;;;;;;;;;;;;;;-0.50;57.22;100590.97;4472573;31;32697;-89
2024/01/21 01:33:51;;;;;;;;;;;;;;;-0.88;58.07;100595.56;4500004;31;33466;-90
2024/01/21 01:36:19;;;;;;;;;;;;;;;-1.17;58.94;100588.12;4485686;31;34261;-89
2024/01/21 01:38:46;;;;;;;;;;;;;;;-0.67;57.90;100588.75;4493451;31;34046;-89
2024/01/21 01:41:14;;;;;;;;;;;;;;;-0.21;56.25;100589.84;4469757;32;33048;-92
2024/01/21 01:43:41;;;;;;;;;;;;;;;-0.62;57.17;100592.56;4469585;32;34563;-89
2024/01/21 01:46:09;;;;;;;;;;;;;;;-0.75;57.77;100583.06;4470109;32;34425;-90
2024/01/21 01:48:36;;;;;;;;;;;;;;;-0.85;58.09;100583.06;4456724;32;32780;-89
2024/01/21 01:51:03;;;;;;;;;;;;;;;-0.88;58.01;100581.94;4483579;32;32928;-89
2024/01/21 01:53:31;;;;;;;;;;;;;;;-0.43;57.04;100576.19;4480235;31;34104;-89
2024/01/21 01:55:58;;;;;;;;;;;;;;;-1.10;59.22;100581.84;4472360;31;34111;-89
2024/01/21 01:58:29;;;;;;;;;;;;;;;-1.06;58.99;100574.62;4485274;31;34806;-89
2024/01/21 02:00:57;;;;;;;;;;;;;;;-0.83;58.33;100580.69;4485302;31;33292;-89
2024/01/21 02:03:24;;;;;;;;;;;;;;;-1.03;58.73;100579.03;4472282;31;34240;-90
2024/01/21 02:05:52;;;;;;;;;;;;;;;-0.96;58.33;100575.34;4472230;31;34040;-90
2024/01/21 02:08:19;;;;;;;;;;;;;;;-0.89;58.54;100582.72;4498303;31;33605;-87
2024/01/21 02:10:46;;;;;;;;;;;;;;;-0.84;58.26;100581.41;4457184;32;33004;-88
2024/01/21 02:13:15;;;;;;;;;;;;;;;-0.79;58.11;100578.50;4484182;32;34254;-89
2024/01/21 02:15:42;;;;;;;;;;;;;;;-0.82;58.06;100585.00;4474083;31;34114;-89
2024/01/21 02:18:10;;;;;;;;;;;;;;;-0.55;57.70;100582.09;4485233;31;34816;-88
2024/01/21 02:20:38;;;;;;;;;;;;;;;-0.75;57.90;100583.06;4499329;31;33404;-89
2024/01/21 02:23:07;;;;;;;;;;;;;;;-1.04;58.61;100588.34;4499253;31;34939;-88
2024/01/21 02:25:34;;;;;;;;;;;;;;;-0.71;58.03;100578.22;4499417;31;34672;-89
2024/01/21 02:28:02;;;;;;;;;;;;;;;-0.97;58.96;100579.56;4484807;31;32232;-90
2024/01/21 02:30:29;;;;;;;;;;;;;;;-1.01;58.85;100582.63;4495624;31;33375;-89
2024/01/21 02:32:56;;;;;;;;;;;;;;;-1.24;59.37;100581.62;4485163;31;34267;-89
2024/01/21 02:35:24;;;;;;;;;;;;;;;-1.03;58.54;100579.03;4484997;31;35355;-89
2024/01/21 02:37:51;;;;;;;;;;;;;;;-0.98;58.86;100578.66;4499188;31;35017;-89
2024/01/21 02:40:18;;;;;;;;;;;;;;;-0.68;57.83;100576.81;4499296;31;33726;-91
2024/01/21 02:42:45;;;;;;;;;;;;;;;-0.93;58.44;100575.59;4499205;31;34377;-89
2024/01/21 02:45:13;;;;;;;;;;;;;;;-0.81;58.02;100581.66;4498699;31;34473;-89
2024/01/21 02:47:40;;;;;;;;;;;;;;;-0.72;57.99;100582.38;4499404;31;34332;-89
2024/01/21 02:50:07;;;;;;;;;;;;;;;-0.98;58.24;100583.75;4499413;31;33188;-89
2024/01/21 02:52:35;;;;;;;;;;;;;;;-0.37;56.69;100594.50;4499141;31;33658;-89
2024/01/21 02:55:03;;;;;;;;;;;;;;;-0.51;56.89;100593.41;4499329;31;35070;-88
2024/01/21 02:57:30;;;;;;;;;;;;;;;-0.67;57.23;100592.97;4471813;31;34880;-89
2024/01/21 02:59:58;;;;;;;;;;;;;;;-0.50;57.08;100606.25;4487936;31;34022;-90
2024/01/21 03:02:25;;;;;;;;;;;;;;;-0.70;57.85;100615.63;4483513;32;33929;-89
2024/01/21 03:04:53;;;;;;;;;;;;;;;-0.66;56.97;100618.53;4483198;32;34411;-89
2024/01/21 03:07:20;;;;;;;;;;;;;;;-0.95;58.24;100616.19;4483213;32;33655;-90
2024/01/21 03:09:47;;;;;;;;;;;;;;;-0.39;56.87;100611.31;4483347;32;32958;-89
2024/01/21 03:12:15;;;;;;;;;;;;;;;-0.65;57.29;100615.22;4498028;31;33935;-89
2024/01/21 03:14:42;;;;;;;;;;;;;;;-0.88;57.70;100620.13;4499325;31;34522;-89
2024/01/21 03:17:09;;;;;;;;;;;;;;;-0.37;56.76;100615.78;4498243;31;33774;-89
2024/01/21 03:19:37;;;;;;;;;;;;;;;-0.75;57.57;100616.16;4499110;31;34181;-91
2024/01/21 03:22:04;;;;;;;;;;;;;;;-1.18;58.73;100624.50;4498868;31;34085;-89
2024/01/21 03:24:31;;;;;;;;;;;;;;;-0.63;57.06;100623.00;4495017;31;34374;-89
2024/01/21 03:26:59;;;;;;;;;;;;;;;-1.07;57.56;100623.72;4483423;32;34871;-89
2024/01/21 03:29:26;;;;;;;;;;;;;;;-1.05;57.96;100637.47;4469523;32;33576;-89
2024/01/21 03:31:53;;;;;;;;;;;;;;;-0.95;57.09;100626.38;4487879;31;34879;-89
2024/01/21 03:34:21;;;;;;;;;;;;;;;-0.90;57.35;100626.75;4498914;31;35212;-88
2024/01/21 03:36:48;;;;;;;;;;;;;;;-0.95;57.01;100628.03;4499143;31;33642;-89
2024/01/21 03:39:16;;;;;;;;;;;;;;;-0.90;57.30;100631.84;4484468;31;33619;-89
2024/01/21 03:41:44;;;;;;;;;;;;;;;-0.58;55.92;100624.25;4486053;31;33891;-89
2024/01/21 03:44:11;;;;;;;;;;;;;;;-0.71;55.66;100624.06;4486459;31;34179;-89
2024/01/21 03:46:39;;;;;;;;;;;;;;;-1.24;57.20;100624.88;4468872;32;33516;-90
2024/01/21 03:49:06;;;;;;;;;;;;;;;-0.83;56.55;100624.84;4483357;31;33212;-89
2024/01/21 03:51:33;;;;;;;;;;;;;;;-0.79;56.80;100628.53;4484981;31;33511;-89
2024/01/21 03:54:01;;;;;;;;;;;;;;;-0.76;56.69;100638.94;4468812;32;34902;-89
2024/01/21 03:56:28;;;;;;;;;;;;;;;-0.83;56.78;100646.87;4483064;32;34043;-89
2024/01/21 03:58:55;;;;;;;;;;;;;;;-0.70;56.73;100643.66;4482961;32;33426;-88
2024/01/21 04:01:22;;;;;;;;;;;;;;;-0.73;56.51;100645.16;4482959;32;33515;-89
2024/01/21 04:03:51;;;;;;;;;;;;;;;-0.73;56.76;100642.62;4469000;31;34606;-89
2024/01/21 04:06:18;;;;;;;;;;;;;;;-1.34;58.00;100646.91;4482632;31;34029;-90
2024/01/21 04:08:45;;;;;;;;;;;;;;;-1.10;57.39;100650.56;4482807;32;33120;-88
2024/01/21 04:11:13;;;;;;;;;;;;;;;-1.37;58.45;100654.25;4455871;32;33705;-89
2024/01/21 04:13:40;;;;;;;;;;;;;;;-1.10;57.68;100641.31;4457266;31;33056;-89
2024/01/21 04:16:07;;;;;;;;;;;;;;;-1.25;58.21;100648.56;4482349;31;33269;-88
2024/01/21 04:18:35;;;;;;;;;;;;;;;-1.34;58.27;100641.81;4482223;31;33477;-89
2024/01/21 04:21:02;;;;;;;;;;;;;;;-1.37;58.52;100644.97;4489395;31;32367;-90
2024/01/21 04:23:30;;;;;;;;;;;;;;;-1.40;58.39;100651.47;4482079;32;33062;-91
2024/01/21 04:25:57;;;;;;;;;;;;;;;-1.00;57.36;100641.28;4481805;32;34078;-90
2024/01/21 04:28:27;;;;;;;;;;;;;;;-1.15;57.75;100639.12;4470311;32;34081;-89
2024/01/21 04:30:54;;;;;;;;;;;;;;;-1.08;57.45;100642.31;4470351;32;33452;-90
2024/01/21 04:33:21;;;;;;;;;;;;;;;-1.00;57.57;100641.28;4488737;31;35027;-89
2024/01/21 04:35:49;;;;;;;;;;;;;;;-0.42;55.99;100639.09;4500286;31;33818;-89
2024/01/21 04:38:16;;;;;;;;;;;;;;;-1.03;56.84;100641.00;4500130;31;33801;-89
2024/01/21 04:40:43;;;;;;;;;;;;;;;-0.63;56.21;100638.28;4485480;31;34599;-89
2024/01/21 04:43:11;;;;;;;;;;;;;;;-0.56;56.16;100638.91;4500147;31;34356;-89
2024/01/21 04:45:38;;;;;;;;;;;;;;;-0.66;56.50;100622.75;4488938;31;33000;-89
2024/01/21 04:48:05;;;;;;;;;;;;;;;-0.13;54.99;100629.56;4483902;32;34014;-88
2024/01/21 04:50:33;;;;;;;;;;;;;;;-0.42;55.36;100629.78;4484470;32;34860;-88
2024/01/21 04:53:00;;;;;;;;;;;;;;;-0.59;55.77;100636.09;4469826;32;34499;-88
2024/01/21 04:55:27;;;;;;;;;;;;;;;-0.73;56.38;100646.81;4470108;32;33437;-89
2024/01/21 04:57:54;;;;;;;;;;;;;;;-0.73;56.04;100646.81;4484132;31;33300;-90
2024/01/21 05:00:22;;;;;;;;;;;;;;;-0.31;55.18;100645.94;4483929;32;33857;-89
2024/01/21 05:02:49;;;;;;;;;;;;;;;-0.89;56.64;100649.78;4484210;32;34764;-90
2024/01/21 05:05:16;;;;;;;;;;;;;;;-0.48;55.81;100648.81;4470841;32;33733;-89
2024/01/21 05:07:44;;;;;;;;;;;;;;;-0.51;55.71;100647.78;4484292;32;33984;-90
2024/01/21 05:10:11;;;;;;;;;;;;;;;-0.20;54.88;100645.12;4469612;32;34660;-90
2024/01/21 05:12:39;;;;;;;;;;;;;;;-0.17;54.88;100645.38;4469675;31;33014;-90
2024/01/21 05:15:06;;;;;;;;;;;;;;;-0.03;54.60;100649.03;4483996;32;34644;-88
2024/01/21 05:17:36;;;;;;;;;;;;;;;0.01;54.39;100657.81;4484014;32;33608;-89
2024/01/21 05:20:03;;;;;;;;;;;;;;;-0.06;54.43;100657.31;4469791;32;34846;-89
2024/01/21 05:22:31;;;;;;;;;;;;;;;-0.04;54.24;100660.87;4469796;32;34072;-89
2024/01/21 05:24:58;;;;;;;;;;;;;;;-0.86;55.83;100665.31;4470222;32;33879;-90
2024/01/21 05:27:25;;;;;;;;;;;;;;;-0.32;54.88;100678.19;4484926;31;32814;-88
2024/01/21 05:29:53;;;;;;;;;;;;;;;-0.27;54.75;100668.34;4469669;32;33870;-89
2024/01/21 05:32:20;;;;;;;;;;;;;;;-0.86;56.03;100684.81;4469620;32;35096;-89
2024/01/21 05:34:47;;;;;;;;;;;;;;;-0.81;55.65;100683.50;4484035;32;34112;-88
2024/01/21 05:37:16;;;;;;;;;;;;;;;-0.73;55.80;100692.66;4469870;32;33790;-89
2024/01/21 05:39:44;;;;;;;;;;;;;;;-1.04;56.65;100694.34;4477695;31;35168;-89
2024/01/21 05:42:12;;;;;;;;;;;;;;;-0.88;56.34;100696.50;4485559;31;32958;-88
2024/01/21 05:44:39;;;;;;;;;;;;;;;-0.85;56.10;100699.31;4500178;31;34153;-88
2024/01/21 05:47:06;;;;;;;;;;;;;;;-0.62;55.84;100702.06;4499402;31;34012;-89
2024/01/21 05:49:33;;;;;;;;;;;;;;;-0.42;55.34;100695.16;4499674;31;33859;-89
2024/01/21 05:52:01;;;;;;;;;;;;;;;-0.46;55.21;100693.12;4499703;31;34071;-89
2024/01/21 05:54:28;;;;;;;;;;;;;;;-0.45;55.23;100702.56;4471647;32;34056;-88
2024/01/21 05:56:56;;;;;;;;;;;;;;;-0.36;54.83;100706.75;4469615;32;33294;-89
2024/01/21 05:59:23;;;;;;;;;;;;;;;-0.45;54.96;100707.66;4483889;32;34034;-88
2024/01/21 06:01:50;;;;;;;;;;;;;;;-0.53;55.24;100713.03;4469313;32;33194;-88
2024/01/21 06:04:18;;;;;;;;;;;;;;;-0.42;54.87;100711.31;4484054;32;34809;-88
2024/01/21 06:06:46;;;;;;;;;;;;;;;-0.61;55.14;100716.59;4469517;32;33419;-89
2024/01/21 06:09:13;;;;;;;;;;;;;;;-0.61;55.49;100720.78;4469586;31;33297;-88
2024/01/21 06:11:40;;;;;;;;;;;;;;;-0.61;55.43;100718.25;4485439;31;33404;-89
2024/01/21 06:14:08;;;;;;;;;;;;;;;-0.79;55.91;100721.09;4472127;31;32342;-88
2024/01/21 06:16:35;;;;;;;;;;;;;;;-1.26;57.27;100732.37;4485055;31;33913;-89
2024/01/21 06:19:03;;;;;;;;;;;;;;;-0.82;56.07;100733.56;4459210;31;32972;-89
2024/01/21 06:21:31;;;;;;;;;;;;;;;-1.29;57.69;100733.03;4497130;31;33915;-88
2024/01/21 06:23:58;;;;;;;;;;;;;;;-1.14;57.43;100738.50;4469576;32;33543;-90
2024/01/21 06:26:26;;;;;;;;;;;;;;;-0.74;56.36;100739.28;4484448;32;32955;-90
2024/01/21 06:28:54;;;;;;;;;;;;;;;-1.16;57.39;100742.59;4483626;32;35133;-89
2024/01/21 06:31:21;;;;;;;;;;;;;;;-1.54;58.64;100735.13;4469287;32;34516;-91
2024/01/21 06:33:48;;;;;;;;;;;;;;;-1.74;59.79;100740.16;4469474;32;33960;-89
2024/01/21 06:36:16;;;;;;;;;;;;;;;-1.57;59.18;100744.16;4485569;31;33544;-89
2024/01/21 06:38:44;;;;;;;;;;;;;;;-1.01;58.04;100748.94;4485238;31;34420;-90
2024/01/21 06:41:11;;;;;;;;;;;;;;;-0.80;57.46;100751.50;4499279;31;33900;-90
2024/01/21 06:43:38;;;;;;;;;;;;;;;-0.61;56.89;100753.91;4480424;32;33360;-89
2024/01/21 06:46:06;;;;;;;;;;;;;;;-0.86;57.28;100751.00;4483695;32;33148;-89
2024/01/21 06:48:33;;;;;;;;;;;;;;;-0.56;56.89;100755.19;4469648;32;34139;-89
2024/01/21 06:51:04;;;;;;;;;;;;;;;-0.76;57.22;100758.63;4488824;31;34161;-88
2024/01/21 06:53:31;;;;;;;;;;;;;;;-0.80;57.42;100746.41;4472372;31;34663;-89
2024/01/21 06:56:04;;;;;;;;;;;;;;;-0.52;56.97;100745.37;4472473;31;32253;-89
2024/01/21 06:58:32;;;;;;;;;;;;;;;-0.61;57.33;100744.59;4499115;31;33973;-89
2024/01/21 07:01:00;;;;;;;;;;;;;;;-0.41;56.93;100741.16;4499188;31;35358;-91
2024/01/21 07:03:28;;;;;;;;;;;;;;;-0.51;57.06;100749.69;4499190;31;34704;-89
2024/01/21 07:05:56;;;;;;;;;;;;;;;-0.28;56.55;100758.31;4490759;31;32950;-89
2024/01/21 07:08:23;;;;;;;;;;;;;;;-0.26;56.50;100760.22;4469222;32;33790;-91
2024/01/21 07:10:51;;;;;;;;;;;;;;;-0.34;56.77;100755.25;4483552;32;34905;-88
2024/01/21 07:13:18;;;;;;;;;;;;;;;-0.08;56.26;100749.72;4482984;31;33904;-90
2024/01/21 07:15:45;;;;;;;;;;;;;;;-0.27;56.48;100755.00;4456620;32;33222;-90
2024/01/21 07:18:12;;;;;;;;;;;;;;;-0.35;57.01;100754.38;4469253;32;34023;-88
2024/01/21 07:20:40;;;;;;;;;;;;;;;-0.36;57.08;100760.25;4481284;31;34321;-88
2024/01/21 07:23:07;;;;;;;;;;;;;;;-0.17;56.59;100756.66;4498677;31;34161;-89
2024/01/21 07:25:35;;;;;;;;;;;;;;;0.03;56.02;100760.78;4499386;31;33061;-89
2024/01/21 07:28:02;;;;;;;;;;;;;;;-0.63;56.65;100766.53;4484401;31;33258;-88
2024/01/21 07:30:30;;;;;;;;;;;;;;;-0.52;56.64;100770.84;4499028;31;34662;-89
2024/01/21 07:32:57;;;;;;;;;;;;;;;-0.79;57.50;100764.38;4499307;31;33259;-89
2024/01/21 07:35:28;;;;;;;;;;;;;;;-0.36;56.54;100770.44;4493312;31;33725;-90
2024/01/21 07:37:55;;;;;;;;;;;;;;;-0.13;55.86;100768.87;4469002;32;34735;-89
2024/01/21 07:40:22;;;;;;;;;;;;;;;-0.10;55.85;100770.00;4468597;32;34195;-89
2024/01/21 07:42:50;;;;;;;;;;;;;;;0.10;55.74;100768.16;4468595;32;33539;-88
2024/01/21 07:45:17;;;;;;;;;;;;;;;0.11;55.25;100765.72;4468933;32;33090;-89
2024/01/21 07:47:47;;;;;;;;;;;;;;;0.18;54.91;100769.66;4469160;32;34041;-90
2024/01/21 07:50:15;;;;;;;;;;;;;;;0.23;54.57;100768.38;4473782;31;34066;-88
2024/01/21 07:52:42;;;;;;;;;;;;;;;0.23;54.72;100773.47;4498844;31;34235;-89
2024/01/21 07:55:09;;;;;;;;;;;;;;;0.60;53.60;100773.78;4484513;31;33396;-89
2024/01/21 07:57:39;;;;;;;;;;;;;;;0.50;53.92;100776.41;4485766;31;34037;-89
2024/01/21 08:00:07;;;;;;;;;;;;;;;0.19;54.64;100779.06;4468487;32;34693;-88
2024/01/21 08:02:35;;;;;;;;;;;;;;;0.59;53.71;100775.47;4468054;32;33975;-89
2024/01/21 08:05:03;;;;;;;;;;;;;;;0.24;54.46;100780.34;4493366;31;33501;-89
2024/01/21 08:07:30;;;;;;;;;;;;;;;0.35;54.75;100769.34;4484216;31;34439;-90
2024/01/21 08:09:58;;;;;;;;;;;;;;;0.15;55.20;100775.41;4483794;31;34367;-88
2024/01/21 08:12:25;;;;;;;;;;;;;;;0.24;55.30;100780.34;4498401;31;34113;-88
2024/01/21 08:14:53;;;;;;;;;;;;;;;0.59;54.32;100784.78;4484088;31;33366;-88
2024/01/21 08:17:20;;;;;;;;;;;;;;;0.25;55.33;100789.78;4483967;31;35256;-89
2024/01/21 08:19:47;;;;;;;;;;;;;;;0.39;54.82;100793.44;4472683;32;33260;-88
2024/01/21 08:22:15;;;;;;;;;;;;;;;0.28;55.04;100792.56;4482696;32;34285;-91
2024/01/21 08:24:42;;;;;;;;;;;;;;;0.56;54.64;100794.75;4467963;32;33097;-88
2024/01/21 08:27:10;;;;;;;;;;;;;;;0.50;54.14;100795.16;4468218;32;33747;-89
2024/01/21 08:29:40;;;;;;;;;;;;;;;0.32;54.68;100801.38;4468109;32;32895;-89
2024/01/21 08:32:08;;;;;;;;;;;;;;;1.02;52.40;100798.31;4482231;31;34287;-88
2024/01/21 08:34:36;;;;;;;;;;;;;;;0.60;54.22;100802.75;4483583;31;32826;-88
2024/01/21 08:37:03;;;;;;;;;;;;;;;0.91;52.79;100808.59;4467958;32;33974;-89
2024/01/21 08:39:31;;;;;;;;;;;;;;;0.64;53.72;100814.09;4455178;32;34742;-88
2024/01/21 08:41:58;;;;;;;;;;;;;;;0.94;53.45;100816.47;4482204;32;34848;-89
2024/01/21 08:44:25;;;;;;;;;;;;;;;0.83;53.60;100816.41;4468099;32;33691;-88
2024/01/21 08:46:53;;;;;;;;;;;;;;;0.93;54.05;100813.81;4482080;32;33669;-89
2024/01/21 08:49:20;;;;;;;;;;;;;;;1.32;52.03;100821.06;4479486;31;34051;-88
2024/01/21 08:51:47;;;;;;;;;;;;;;;1.30;51.97;100825.19;4498113;31;33316;-88
2024/01/21 08:54:15;;;;;;;;;;;;;;;1.59;51.14;100831.59;4483188;31;31855;-89
2024/01/21 08:56:42;;;;;;;;;;;;;;;1.34;51.37;100831.44;4483055;31;34589;-89
2024/01/21 08:59:10;;;;;;;;;;;;;;;1.50;50.93;100831.81;4496199;31;35151;-89
2024/01/21 09:01:37;;;;;;;;;;;;;;;1.77;50.63;100843.19;4467609;32;33830;-88
2024/01/21 09:04:05;;;;;;;;;;;;;;;1.86;49.99;100846.44;4481879;32;33331;-88
2024/01/21 09:06:32;;;;;;;;;;;;;;;1.84;50.30;100839.44;4477230;31;34064;-89
2024/01/21 09:09:01;;;;;;;;;;;;;;;1.90;50.71;100853.56;4486050;31;35044;-88
2024/01/21 09:11:29;;;;;;;;;;;;;;;2.11;50.85;100855.91;4488721;31;33270;-88
2024/01/21 09:13:56;;;;;;;;;;;;;;;2.37;50.75;100855.25;4483817;31;32438;-88
2024/01/21 09:16:25;;;;;;;;;;;;;;;2.38;51.03;100855.34;4485650;31;33404;-91
2024/01/21 09:18:52;;;;;;;;;;;;;;;2.35;51.19;100852.59;4485506;31;34763;-88
2024/01/21 09:21:19;;;;;;;;;;;;;;;2.06;51.25;100857.25;4460475;31;33398;-88
2024/01/21 09:24:03;;;;;;;;;;;;;;;2.11;51.20;100861.03;4489916;31;33739;-88
2024/01/21 09:26:31;;;;;;;;;;;;;;;2.37;50.81;100851.03;4498823;31;35208;-93
2024/01/21 09:28:58;;;;;;;;;;;;;;;2.55;50.87;100851.47;4465541;32;33940;-90
2024/01/21 09:31:26;;;;;;;;;;;;;;;2.72;50.31;100844.97;4470105;32;33807;-88
2024/01/21 09:33:53;;;;;;;;;;;;;;;2.75;50.22;100845.19;4470167;32;33002;-87
2024/01/21 09:36:21;;;;;;;;;;;;;;;2.66;50.27;100844.56;4469899;32;34149;-88
2024/01/21 09:38:50;;;;;;;;;;;;;;;2.57;50.18;100851.56;4469864;32;34875;-88
2024/01/21 09:41:25;;;;;;;;;;;;;;;2.54;50.05;100848.78;4470495;32;33716;-87
2024/01/21 09:43:52;;;;;;;;;;;;;;;2.47;50.28;100856.81;4484089;32;33304;-87
2024/01/21 09:46:20;;;;;;;;;;;;;;;2.56;49.82;100855.78;4486487;31;33997;-91
2024/01/21 09:48:47;;;;;;;;;;;;;;;2.54;49.07;100852.25;4468298;32;33899;-87
2024/01/21 09:51:17;;;;;;;;;;;;;;;2.36;49.75;100853.50;4458299;31;32732;-87
2024/01/21 09:53:45;;;;;;;;;;;;;;;2.52;50.23;100858.03;4478137;32;31808;-91
2024/01/21 09:56:12;;;;;;;;;;;;;;;2.27;51.37;100857.91;4470823;31;35106;-89
2024/01/21 09:58:40;;;;;;;;;;;;;;;2.92;49.77;100857.53;4477757;32;32673;-88
2024/01/21 10:01:08;;;;;;;;;;;;;;;2.95;48.85;100861.06;4456824;32;34003;-89
2024/01/21 10:03:35;;;;;;;;;;;;;;;2.91;49.40;100849.72;4465889;31;34014;-89
2024/01/21 10:06:04;;;;;;;;;;;;;;;2.77;49.69;100859.00;4499187;31;34880;-90
2024/01/21 10:08:31;;;;;;;;;;;;;;;2.27;49.91;100853.69;4492182;31;33940;-89
2024/01/21 10:11:02;;;;;;;;;;;;;;;2.26;48.77;100857.03;4493660;31;34283;-88
2024/01/21 10:13:30;;;;;;;;;;;;;;;2.30;49.17;100859.03;4481777;31;32197;-88
2024/01/21 10:15:58;;;;;;;;;;;;;;;2.49;49.50;100860.37;4484937;31;34768;-89
2024/01/21 10:18:26;;;;;;;;;;;;;;;2.63;48.69;100859.69;4459457;31;33431;-88
2024/01/21 10:20:53;;;;;;;;;;;;;;;2.97;48.45;100854.37;4485324;31;33615;-90
2024/01/21 10:23:23;;;;;;;;;;;;;;;3.19;47.75;100860.22;4483731;32;33347;-93
2024/01/21 10:25:51;;;;;;;;;;;;;;;3.22;47.57;100854.41;4482015;32;33282;-89
2024/01/21 10:28:18;;;;;;;;;;;;;;;3.14;47.32;100851.31;4482388;32;33516;-89
2024/01/21 10:30:45;;;;;;;;;;;;;;;3.32;46.92;100849.12;4483375;32;33497;-88
2024/01/21 10:33:13;;;;;;;;;;;;;;;3.15;47.43;100853.13;4469422;32;33034;-88
2024/01/21 10:35:42;;;;;;;;;;;;;;;3.23;47.89;100848.50;4483197;32;34051;-89
2024/01/21 10:38:12;;;;;;;;;;;;;;;3.26;47.92;100846.13;4483721;31;34397;-88
2024/01/21 10:40:44;;;;;;;;;;;;;;;2.98;49.03;100843.34;4488890;31;33603;-88
2024/01/21 10:43:14;;;;;;;;;;;;;;;2.74;49.59;100845.09;4485155;31;33034;-88
2024/01/21 10:45:43;;;;;;;;;;;;;;;3.11;49.10;100853.69;4475121;32;34942;-89
2024/01/21 10:48:10;;;;;;;;;;;;;;;3.17;49.36;100856.66;4457117;32;33199;-89
2024/01/21 10:50:40;;;;;;;;;;;;;;;3.10;48.66;100854.44;4483672;31;33210;-89
2024/01/21 10:53:10;;;;;;;;;;;;;;;2.59;49.30;100860.25;4474961;31;33368;-88
2024/01/21 10:55:41;;;;;;;;;;;;;;;3.02;49.76;100858.16;4499406;31;34045;-88
2024/01/21 10:58:08;;;;;;;;;;;;;;;3.25;49.24;100860.63;4498484;31;34954;-89
2024/01/21 11:00:36;;;;;;;;;;;;;;;3.48;48.74;100856.19;4484462;31;33893;-88
2024/01/21 11:03:23;;;;;;;;;;;;;;;3.57;48.93;100856.84;4483549;31;34234;-92
2024/01/21 11:06:01;;;;;;;;;;;;;;;3.49;48.38;100845.16;4484492;31;34540;-91
2024/01/21 11:08:28;;;;;;;;;;;;;;;3.22;48.69;100855.31;4470328;32;35034;-88
2024/01/21 11:11:08;;;;;;;;;;;;;;;3.33;47.97;100853.47;4483371;31;33983;-89
2024/01/21 11:13:45;;;;;;;;;;;;;;;3.25;47.93;100855.50;4483359;32;33285;-88
2024/01/21 11:16:25;;;;;;;;;;;;;;;3.08;49.76;100858.59;4470843;31;33855;-89
2024/01/21 11:18:52;;;;;;;;;;;;;;;3.53;48.59;100854.84;4498935;31;35345;-88
2024/01/21 11:21:20;;;;;;;;;;;;;;;3.57;48.59;100851.69;4484554;31;33986;-88
2024/01/21 11:24:07;;;;;;;;;;;;;;;3.99;47.65;100855.34;4479757;32;32570;-88
2024/01/21 11:26:35;;;;;;;;;;;;;;;3.47;48.34;100851.84;4496472;31;34673;-89
2024/01/21 11:29:20;;;;;;;;;;;;;;;3.75;47.99;100844.31;4470886;31;34243;-88
2024/01/21 11:31:51;;;;;;;;;;;;;;;3.63;46.77;100841.84;4474207;31;34091;-89
2024/01/21 11:34:18;;;;;;;;;;;;;;;3.64;47.23;100834.25;4484131;31;33256;-89
2024/01/21 11:36:46;;;;;;;;;;;;;;;3.37;47.43;100846.13;4486827;31;35004;-89
2024/01/21 11:39:15;;;;;;;;;;;;;;;3.86;46.58;100846.84;4492574;31;34343;-89
2024/01/21 11:41:43;;;;;;;;;;;;;;;3.68;46.04;100843.06;4468662;32;34862;-90
2024/01/21 11:44:29;;;;;;;;;;;;;;;3.48;46.95;100844.25;4468704;32;33256;-89
2024/01/21 11:46:58;;;;;;;;;;;;;;;3.86;47.05;100844.28;4468500;32;34312;-89
2024/01/21 11:49:25;;;;;;;;;;;;;;;3.68;46.66;100845.62;4456096;31;32841;-89
2024/01/21 11:51:53;;;;;;;;;;;;;;;3.58;48.17;100838.09;4477277;31;34660;-88
2024/01/21 11:54:21;;;;;;;;;;;;;;;3.53;48.78;100844.59;4489056;31;33867;-87
2024/01/21 11:56:50;;;;;;;;;;;;;;;3.58;48.83;100843.22;4468705;32;34556;-89
2024/01/21 11:59:17;;;;;;;;;;;;;;;4.02;48.00;100840.16;4468717;32;34076;-89
2024/01/21 12:01:45;;;;;;;;;;;;;;;3.46;48.03;100833.03;4484228;31;32946;-88
2024/01/21 12:04:12;;;;;;;;;;;;;;;3.71;47.80;100830.41;4484048;31;34199;-88
2024/01/21 12:06:41;;;;;;;;;;;;;;;3.77;47.85;100830.81;4498245;31;34103;-89
2024/01/21 12:09:08;;;;;;;;;;;;;;;3.98;47.94;100821.09;4471281;31;32897;-88
2024/01/21 12:11:36;;;;;;;;;;;;;;;3.92;47.95;100830.94;4498427;31;35011;-90
2024/01/21 12:14:04;;;;;;;;;;;;;;;3.97;48.35;100826.13;4470801;31;32303;-89
2024/01/21 12:16:32;;;;;;;;;;;;;;;3.75;48.30;100832.41;4498406;31;34634;-90
2024/01/21 12:19:00;;;;;;;;;;;;;;;3.89;48.26;100829.06;4476164;32;34290;-89
2024/01/21 12:21:28;;;;;;;;;;;;;;;3.89;48.06;100828.19;4468299;32;34512;-89
2024/01/21 12:23:56;;;;;;;;;;;;;;;4.04;47.34;100821.47;4482477;32;33432;-88
2024/01/21 12:26:27;;;;;;;;;;;;;;;4.15;47.04;100825.62;4482475;32;34167;-89
2024/01/21 12:28:57;;;;;;;;;;;;;;;4.31;47.15;100829.19;4482449;32;34268;-89
2024/01/21 12:31:29;;;;;;;;;;;;;;;4.14;46.82;100820.41;4482331;32;33930;-89
2024/01/21 12:33:57;;;;;;;;;;;;;;;4.34;47.25;100829.41;4482561;31;34057;-89
2024/01/21 12:36:25;;;;;;;;;;;;;;;4.07;47.95;100820.81;4482191;32;34203;-89
2024/01/21 12:38:52;;;;;;;;;;;;;;;3.30;49.46;100838.78;4482229;32;34845;-88
2024/01/21 12:41:20;;;;;;;;;;;;;;;3.52;48.72;100835.09;4468037;32;34184;-89
2024/01/21 12:43:51;;;;;;;;;;;;;;;3.96;48.68;100829.47;4455101;32;33186;-89